sensor_id;sensor_type;location;lat;lon;timestamp;temperature;humidity
48860;DHT22;34679;51.436;-2.518;2023-03-21T00:01:20;10.40;99.90
48860;DHT22;34679;51.436;-2.518;2023-03-21T00:03:46;10.40;99.90
48860;DHT22;34679;51.436;-2.518;2023-03-21T00:06:13;10.40;99.90
48860;DHT22;34679;51.436;-2.518;2023-03-21T00:08:40;10.30;99.90
48860;DHT22;34679;51.436;-2.518;2023-03-21T00:11:08;10.30;99.90
48860;DHT22;34679;51.436;-2.518;2023-03-21T00:13:34;10.30;99.90
48860;DHT22;34679;51.436;-2.518;2023-03-21T00:18:41;10.30;99.90
48860;DHT22;34679;51.436;-2.518;2023-03-21T00:21:07;10.30;99.90
48860;DHT22;34679;51.436;-2.518;2023-03-21T00:23:34;10.30;99.90
48860;DHT22;34679;51.436;-2.518;2023-03-21T00:26:00;10.30;99.90
48860;DHT22;34679;51.436;-2.518;2023-03-21T00:28:28;10.30;99.90
48860;DHT22;34679;51.436;-2.518;2023-03-21T00:31:00;10.30;99.90
48860;DHT22;34679;51.436;-2.518;2023-03-21T00:33:26;10.20;99.90
48860;DHT22;34679;51.436;-2.518;2023-03-21T00:35:52;10.20;99.90
48860;DHT22;34679;51.436;-2.518;2023-03-21T00:38:19;10.20;99.90
48860;DHT22;34679;51.436;-2.518;2023-03-21T00:40:45;10.20;99.90
48860;DHT22;34679;51.436;-2.518;2023-03-21T00:43:10;10.10;99.90
48860;DHT22;34679;51.436;-2.518;2023-03-21T00:45:37;10.10;99.90
48860;DHT22;34679;51.436;-2.518;2023-03-21T00:48:04;10.10;99.90
48860;DHT22;34679;51.436;-2.518;2023-03-21T00:50:30;10.10;99.90
48860;DHT22;34679;51.436;-2.518;2023-03-21T00:52:57;10.10;99.90
48860;DHT22;34679;51.436;-2.518;2023-03-21T00:55:23;10.10;99.90
48860;DHT22;34679;51.436;-2.518;2023-03-21T00:57:48;10.10;99.90
48860;DHT22;34679;51.436;-2.518;2023-03-21T01:00:15;10.00;99.90
48860;DHT22;34679;51.436;-2.518;2023-03-21T01:02:43;10.00;99.90
48860;DHT22;34679;51.436;-2.518;2023-03-21T01:05:36;10.00;99.90
48860;DHT22;34679;51.436;-2.518;2023-03-21T01:08:21;10.00;99.90
48860;DHT22;34679;51.436;-2.518;2023-03-21T01:10:48;10.00;99.90
48860;DHT22;34679;51.436;-2.518;2023-03-21T01:13:16;10.00;99.90
48860;DHT22;34679;51.436;-2.518;2023-03-21T01:15:45;10.00;99.90
48860;DHT22;34679;51.436;-2.518;2023-03-21T01:18:13;9.90;99.90
48860;DHT22;34679;51.436;-2.518;2023-03-21T01:20:43;10.00;99.90
48860;DHT22;34679;51.436;-2.518;2023-03-21T01:23:12;9.90;99.90
48860;DHT22;34679;51.436;-2.518;2023-03-21T01:25:38;9.90;99.90
48860;DHT22;34679;51.436;-2.518;2023-03-21T01:28:04;9.90;99.90
48860;DHT22;34679;51.436;-2.518;2023-03-21T01:30:30;9.90;99.90
48860;DHT22;34679;51.436;-2.518;2023-03-21T01:32:56;9.90;99.90
48860;DHT22;34679;51.436;-2.518;2023-03-21T01:35:22;9.90;99.90
48860;DHT22;34679;51.436;-2.518;2023-03-21T01:37:48;9.90;99.90
48860;DHT22;34679;51.436;-2.518;2023-03-21T01:40:23;9.90;99.90
48860;DHT22;34679;51.436;-2.518;2023-03-21T01:42:49;9.90;99.90
48860;DHT22;34679;51.436;-2.518;2023-03-21T01:48:20;9.90;99.90
48860;DHT22;34679;51.436;-2.518;2023-03-21T01:50:46;10.00;99.90
48860;DHT22;34679;51.436;-2.518;2023-03-21T01:53:13;10.00;99.90
48860;DHT22;34679;51.436;-2.518;2023-03-21T01:55:40;10.00;99.90
48860;DHT22;34679;51.436;-2.518;2023-03-21T01:58:07;9.90;99.90
48860;DHT22;34679;51.436;-2.518;2023-03-21T02:00:35;10.00;99.90
48860;DHT22;34679;51.436;-2.518;2023-03-21T02:03:06;10.00;99.90
48860;DHT22;34679;51.436;-2.518;2023-03-21T02:05:43;10.00;99.90
48860;DHT22;34679;51.436;-2.518;2023-03-21T02:08:15;10.00;99.90
48860;DHT22;34679;51.436;-2.518;2023-03-21T02:10:42;10.00;99.90
48860;DHT22;34679;51.436;-2.518;2023-03-21T02:13:09;10.00;99.90
48860;DHT22;34679;51.436;-2.518;2023-03-21T02:15:42;10.00;99.90
48860;DHT22;34679;51.436;-2.518;2023-03-21T02:19:13;9.90;99.90
48860;DHT22;34679;51.436;-2.518;2023-03-21T02:26:54;9.90;99.90
48860;DHT22;34679;51.436;-2.518;2023-03-21T02:32:55;9.90;99.90
48860;DHT22;34679;51.436;-2.518;2023-03-21T02:35:27;9.90;99.90
48860;DHT22;34679;51.436;-2.518;2023-03-21T02:40:51;10.00;99.90
48860;DHT22;34679;51.436;-2.518;2023-03-21T02:46:13;10.00;99.90
48860;DHT22;34679;51.436;-2.518;2023-03-21T02:48:55;10.00;99.90
48860;DHT22;34679;51.436;-2.518;2023-03-21T02:51:23;10.00;99.90
48860;DHT22;34679;51.436;-2.518;2023-03-21T02:54:00;10.00;99.90
48860;DHT22;34679;51.436;-2.518;2023-03-21T02:56:27;10.00;99.90
48860;DHT22;34679;51.436;-2.518;2023-03-21T02:58:53;10.10;99.90
48860;DHT22;34679;51.436;-2.518;2023-03-21T03:01:19;10.00;99.90
48860;DHT22;34679;51.436;-2.518;2023-03-21T03:03:45;10.00;99.90
48860;DHT22;34679;51.436;-2.518;2023-03-21T03:06:26;10.00;99.90
48860;DHT22;34679;51.436;-2.518;2023-03-21T03:11:43;10.00;99.90
48860;DHT22;34679;51.436;-2.518;2023-03-21T03:17:06;10.10;99.90
48860;DHT22;34679;51.436;-2.518;2023-03-21T03:19:44;10.00;99.90
48860;DHT22;34679;51.436;-2.518;2023-03-21T03:22:25;10.10;99.90
48860;DHT22;34679;51.436;-2.518;2023-03-21T03:25:02;10.10;99.90
48860;DHT22;34679;51.436;-2.518;2023-03-21T03:27:35;10.00;99.90
48860;DHT22;34679;51.436;-2.518;2023-03-21T03:30:03;10.00;99.90
48860;DHT22;34679;51.436;-2.518;2023-03-21T03:32:53;10.00;99.90
48860;DHT22;34679;51.436;-2.518;2023-03-21T03:35:20;10.00;99.90
48860;DHT22;34679;51.436;-2.518;2023-03-21T03:37:50;10.00;99.90
48860;DHT22;34679;51.436;-2.518;2023-03-21T03:40:24;10.00;99.90
48860;DHT22;34679;51.436;-2.518;2023-03-21T03:42:52;10.00;99.90
48860;DHT22;34679;51.436;-2.518;2023-03-21T03:45:22;10.00;99.90
48860;DHT22;34679;51.436;-2.518;2023-03-21T03:50:51;10.10;99.90
48860;DHT22;34679;51.436;-2.518;2023-03-21T03:53:24;10.10;99.90
48860;DHT22;34679;51.436;-2.518;2023-03-21T03:55:54;10.10;99.90
48860;DHT22;34679;51.436;-2.518;2023-03-21T03:58:21;10.10;99.90
48860;DHT22;34679;51.436;-2.518;2023-03-21T04:00:48;10.10;99.90
48860;DHT22;34679;51.436;-2.518;2023-03-21T04:03:14;10.10;99.90
48860;DHT22;34679;51.436;-2.518;2023-03-21T04:05:40;10.30;99.90
48860;DHT22;34679;51.436;-2.518;2023-03-21T04:08:08;10.20;99.90
48860;DHT22;34679;51.436;-2.518;2023-03-21T04:10:33;10.30;99.90
48860;DHT22;34679;51.436;-2.518;2023-03-21T04:12:59;10.30;99.90
48860;DHT22;34679;51.436;-2.518;2023-03-21T04:15:25;10.30;99.90
48860;DHT22;34679;51.436;-2.518;2023-03-21T04:17:51;10.30;99.90
48860;DHT22;34679;51.436;-2.518;2023-03-21T04:20:16;10.30;99.90
48860;DHT22;34679;51.436;-2.518;2023-03-21T04:22:42;10.30;99.90
48860;DHT22;34679;51.436;-2.518;2023-03-21T04:25:08;10.40;99.90
48860;DHT22;34679;51.436;-2.518;2023-03-21T04:27:34;10.40;99.90
48860;DHT22;34679;51.436;-2.518;2023-03-21T04:30:00;10.40;99.90
48860;DHT22;34679;51.436;-2.518;2023-03-21T04:32:26;10.30;99.90
48860;DHT22;34679;51.436;-2.518;2023-03-21T04:34:52;10.40;99.90
48860;DHT22;34679;51.436;-2.518;2023-03-21T04:37:22;10.30;99.90
48860;DHT22;34679;51.436;-2.518;2023-03-21T04:39:51;10.30;99.90
48860;DHT22;34679;51.436;-2.518;2023-03-21T04:42:17;10.30;99.90
48860;DHT22;34679;51.436;-2.518;2023-03-21T04:44:47;10.30;99.90
48860;DHT22;34679;51.436;-2.518;2023-03-21T04:47:14;10.40;99.90
48860;DHT22;34679;51.436;-2.518;2023-03-21T04:49:45;10.40;99.90
48860;DHT22;34679;51.436;-2.518;2023-03-21T04:52:14;10.40;99.90
48860;DHT22;34679;51.436;-2.518;2023-03-21T04:54:40;10.50;99.90
48860;DHT22;34679;51.436;-2.518;2023-03-21T04:57:05;10.50;99.90
48860;DHT22;34679;51.436;-2.518;2023-03-21T04:59:32;10.50;99.90
48860;DHT22;34679;51.436;-2.518;2023-03-21T05:01:58;10.50;99.90
48860;DHT22;34679;51.436;-2.518;2023-03-21T05:04:25;10.50;99.90
48860;DHT22;34679;51.436;-2.518;2023-03-21T05:06:52;10.50;99.90
48860;DHT22;34679;51.436;-2.518;2023-03-21T05:09:18;10.50;99.90
48860;DHT22;34679;51.436;-2.518;2023-03-21T05:11:43;10.50;99.90
48860;DHT22;34679;51.436;-2.518;2023-03-21T05:14:13;10.50;99.90
48860;DHT22;34679;51.436;-2.518;2023-03-21T05:16:41;10.50;99.90
48860;DHT22;34679;51.436;-2.518;2023-03-21T05:19:13;10.50;99.90
48860;DHT22;34679;51.436;-2.518;2023-03-21T05:21:38;10.50;99.90
48860;DHT22;34679;51.436;-2.518;2023-03-21T05:24:17;10.50;99.90
48860;DHT22;34679;51.436;-2.518;2023-03-21T05:26:44;10.40;99.90
48860;DHT22;34679;51.436;-2.518;2023-03-21T05:29:15;10.40;99.90
48860;DHT22;34679;51.436;-2.518;2023-03-21T05:31:42;10.50;99.90
48860;DHT22;34679;51.436;-2.518;2023-03-21T05:34:08;10.40;99.90
48860;DHT22;34679;51.436;-2.518;2023-03-21T05:36:34;10.40;99.90
48860;DHT22;34679;51.436;-2.518;2023-03-21T05:39:01;10.30;99.90
48860;DHT22;34679;51.436;-2.518;2023-03-21T05:41:26;10.30;99.90
48860;DHT22;34679;51.436;-2.518;2023-03-21T05:43:52;10.30;99.90
48860;DHT22;34679;51.436;-2.518;2023-03-21T05:46:18;10.20;99.90
48860;DHT22;34679;51.436;-2.518;2023-03-21T05:48:43;10.30;99.90
48860;DHT22;34679;51.436;-2.518;2023-03-21T05:51:09;10.40;99.90
48860;DHT22;34679;51.436;-2.518;2023-03-21T05:53:35;10.40;99.90
48860;DHT22;34679;51.436;-2.518;2023-03-21T05:56:01;10.40;99.90
48860;DHT22;34679;51.436;-2.518;2023-03-21T05:58:28;10.40;99.90
48860;DHT22;34679;51.436;-2.518;2023-03-21T06:00:54;10.40;99.90
48860;DHT22;34679;51.436;-2.518;2023-03-21T06:03:19;10.50;99.90
48860;DHT22;34679;51.436;-2.518;2023-03-21T06:05:45;10.50;99.90
48860;DHT22;34679;51.436;-2.518;2023-03-21T06:08:12;10.50;99.90
48860;DHT22;34679;51.436;-2.518;2023-03-21T06:10:38;10.60;99.90
48860;DHT22;34679;51.436;-2.518;2023-03-21T06:13:03;10.50;99.90
48860;DHT22;34679;51.436;-2.518;2023-03-21T06:15:29;10.60;99.90
48860;DHT22;34679;51.436;-2.518;2023-03-21T06:17:55;10.60;99.90
48860;DHT22;34679;51.436;-2.518;2023-03-21T06:20:20;10.60;99.90
48860;DHT22;34679;51.436;-2.518;2023-03-21T06:22:46;10.60;99.90
48860;DHT22;34679;51.436;-2.518;2023-03-21T06:25:12;10.70;99.90
48860;DHT22;34679;51.436;-2.518;2023-03-21T06:27:38;10.60;99.90
48860;DHT22;34679;51.436;-2.518;2023-03-21T06:30:04;10.60;99.90
48860;DHT22;34679;51.436;-2.518;2023-03-21T06:32:31;10.60;99.90
48860;DHT22;34679;51.436;-2.518;2023-03-21T06:34:57;10.60;99.90
48860;DHT22;34679;51.436;-2.518;2023-03-21T06:37:23;10.60;99.90
48860;DHT22;34679;51.436;-2.518;2023-03-21T06:39:51;10.60;99.90
48860;DHT22;34679;51.436;-2.518;2023-03-21T06:42:16;10.60;99.90
48860;DHT22;34679;51.436;-2.518;2023-03-21T06:44:42;10.60;99.90
48860;DHT22;34679;51.436;-2.518;2023-03-21T06:47:08;10.60;99.90
48860;DHT22;34679;51.436;-2.518;2023-03-21T06:49:34;10.60;99.90
48860;DHT22;34679;51.436;-2.518;2023-03-21T06:51:59;10.70;99.90
48860;DHT22;34679;51.436;-2.518;2023-03-21T06:54:25;10.70;99.90
48860;DHT22;34679;51.436;-2.518;2023-03-21T06:56:51;10.80;99.90
48860;DHT22;34679;51.436;-2.518;2023-03-21T06:59:17;10.90;99.90
48860;DHT22;34679;51.436;-2.518;2023-03-21T07:01:42;10.90;99.90
48860;DHT22;34679;51.436;-2.518;2023-03-21T07:04:09;10.80;99.90
48860;DHT22;34679;51.436;-2.518;2023-03-21T07:06:35;10.80;99.90
48860;DHT22;34679;51.436;-2.518;2023-03-21T07:09:02;10.80;99.90
48860;DHT22;34679;51.436;-2.518;2023-03-21T07:11:30;10.70;99.90
48860;DHT22;34679;51.436;-2.518;2023-03-21T07:13:56;10.80;99.90
48860;DHT22;34679;51.436;-2.518;2023-03-21T07:16:22;10.80;99.90
48860;DHT22;34679;51.436;-2.518;2023-03-21T07:18:50;10.80;99.90
48860;DHT22;34679;51.436;-2.518;2023-03-21T07:21:16;10.80;99.90
48860;DHT22;34679;51.436;-2.518;2023-03-21T07:23:42;10.80;99.90
48860;DHT22;34679;51.436;-2.518;2023-03-21T07:26:08;10.80;99.90
48860;DHT22;34679;51.436;-2.518;2023-03-21T07:28:34;10.90;99.90
48860;DHT22;34679;51.436;-2.518;2023-03-21T07:31:03;11.00;99.90
48860;DHT22;34679;51.436;-2.518;2023-03-21T07:33:29;11.10;99.90
48860;DHT22;34679;51.436;-2.518;2023-03-21T07:35:56;11.30;99.90
48860;DHT22;34679;51.436;-2.518;2023-03-21T07:38:25;11.40;99.90
48860;DHT22;34679;51.436;-2.518;2023-03-21T07:40:51;11.70;99.90
48860;DHT22;34679;51.436;-2.518;2023-03-21T07:43:17;12.50;99.90
48860;DHT22;34679;51.436;-2.518;2023-03-21T07:45:43;13.30;99.90
48860;DHT22;34679;51.436;-2.518;2023-03-21T07:48:10;13.60;99.90
48860;DHT22;34679;51.436;-2.518;2023-03-21T07:50:38;13.60;99.90
48860;DHT22;34679;51.436;-2.518;2023-03-21T07:53:03;13.20;99.90
48860;DHT22;34679;51.436;-2.518;2023-03-21T07:55:29;13.00;99.90
48860;DHT22;34679;51.436;-2.518;2023-03-21T07:57:59;12.90;99.90
48860;DHT22;34679;51.436;-2.518;2023-03-21T08:00:25;12.90;99.90
48860;DHT22;34679;51.436;-2.518;2023-03-21T08:02:52;13.00;99.90
48860;DHT22;34679;51.436;-2.518;2023-03-21T08:05:23;12.90;99.90
48860;DHT22;34679;51.436;-2.518;2023-03-21T08:07:49;13.20;99.90
48860;DHT22;34679;51.436;-2.518;2023-03-21T08:10:17;13.90;99.90
48860;DHT22;34679;51.436;-2.518;2023-03-21T08:12:45;15.00;99.90
48860;DHT22;34679;51.436;-2.518;2023-03-21T08:15:12;16.10;99.90
48860;DHT22;34679;51.436;-2.518;2023-03-21T08:17:39;16.70;99.90
48860;DHT22;34679;51.436;-2.518;2023-03-21T08:20:06;16.60;99.90
48860;DHT22;34679;51.436;-2.518;2023-03-21T08:22:33;16.20;99.90
48860;DHT22;34679;51.436;-2.518;2023-03-21T08:25:00;15.50;99.90
48860;DHT22;34679;51.436;-2.518;2023-03-21T08:27:27;14.60;99.90
48860;DHT22;34679;51.436;-2.518;2023-03-21T08:29:52;14.00;99.90
48860;DHT22;34679;51.436;-2.518;2023-03-21T08:32:18;13.70;99.90
48860;DHT22;34679;51.436;-2.518;2023-03-21T08:34:44;13.90;99.90
48860;DHT22;34679;51.436;-2.518;2023-03-21T08:37:10;14.30;99.90
48860;DHT22;34679;51.436;-2.518;2023-03-21T08:39:35;14.80;99.90
48860;DHT22;34679;51.436;-2.518;2023-03-21T08:42:02;15.80;99.90
48860;DHT22;34679;51.436;-2.518;2023-03-21T08:44:27;16.40;99.90
48860;DHT22;34679;51.436;-2.518;2023-03-21T08:46:53;16.20;99.90
48860;DHT22;34679;51.436;-2.518;2023-03-21T08:49:19;15.70;99.90
48860;DHT22;34679;51.436;-2.518;2023-03-21T08:51:45;15.50;99.90
48860;DHT22;34679;51.436;-2.518;2023-03-21T08:54:21;15.40;99.90
48860;DHT22;34679;51.436;-2.518;2023-03-21T08:56:47;15.50;99.90
48860;DHT22;34679;51.436;-2.518;2023-03-21T08:59:13;15.60;99.90
48860;DHT22;34679;51.436;-2.518;2023-03-21T09:01:40;15.50;99.90
48860;DHT22;34679;51.436;-2.518;2023-03-21T09:04:06;15.00;99.90
48860;DHT22;34679;51.436;-2.518;2023-03-21T09:06:36;14.70;99.90
48860;DHT22;34679;51.436;-2.518;2023-03-21T09:09:02;14.60;99.90
48860;DHT22;34679;51.436;-2.518;2023-03-21T09:11:32;14.50;99.90
48860;DHT22;34679;51.436;-2.518;2023-03-21T09:13:58;14.20;99.90
48860;DHT22;34679;51.436;-2.518;2023-03-21T09:16:23;14.30;99.90
48860;DHT22;34679;51.436;-2.518;2023-03-21T09:18:49;14.30;99.90
48860;DHT22;34679;51.436;-2.518;2023-03-21T09:21:20;14.10;99.90
48860;DHT22;34679;51.436;-2.518;2023-03-21T09:23:48;13.90;99.90
48860;DHT22;34679;51.436;-2.518;2023-03-21T09:26:17;13.90;99.90
48860;DHT22;34679;51.436;-2.518;2023-03-21T09:28:44;13.60;99.90
48860;DHT22;34679;51.436;-2.518;2023-03-21T09:31:11;13.30;99.90
48860;DHT22;34679;51.436;-2.518;2023-03-21T09:33:41;13.00;99.90
48860;DHT22;34679;51.436;-2.518;2023-03-21T09:36:10;12.90;99.90
48860;DHT22;34679;51.436;-2.518;2023-03-21T09:38:39;12.90;99.90
48860;DHT22;34679;51.436;-2.518;2023-03-21T09:49:44;15.40;99.90
48860;DHT22;34679;51.436;-2.518;2023-03-21T09:52:28;16.50;99.90
48860;DHT22;34679;51.436;-2.518;2023-03-21T09:54:54;17.00;99.90
48860;DHT22;34679;51.436;-2.518;2023-03-21T10:00:02;17.50;99.90
48860;DHT22;34679;51.436;-2.518;2023-03-21T10:02:51;16.80;99.90
48860;DHT22;34679;51.436;-2.518;2023-03-21T10:08:07;15.70;99.90
48860;DHT22;34679;51.436;-2.518;2023-03-21T10:10:42;15.90;99.90
48860;DHT22;34679;51.436;-2.518;2023-03-21T10:13:15;15.70;99.90
48860;DHT22;34679;51.436;-2.518;2023-03-21T10:15:41;15.80;99.90
48860;DHT22;34679;51.436;-2.518;2023-03-21T10:18:09;16.10;99.90
48860;DHT22;34679;51.436;-2.518;2023-03-21T10:20:40;16.70;99.90
48860;DHT22;34679;51.436;-2.518;2023-03-21T10:23:10;16.60;99.90
48860;DHT22;34679;51.436;-2.518;2023-03-21T10:25:47;16.50;99.90
48860;DHT22;34679;51.436;-2.518;2023-03-21T10:28:20;16.50;99.90
48860;DHT22;34679;51.436;-2.518;2023-03-21T10:30:53;16.50;99.90
48860;DHT22;34679;51.436;-2.518;2023-03-21T10:33:24;16.20;99.90
48860;DHT22;34679;51.436;-2.518;2023-03-21T10:35:54;16.10;99.90
48860;DHT22;34679;51.436;-2.518;2023-03-21T10:38:23;15.90;99.90
48860;DHT22;34679;51.436;-2.518;2023-03-21T10:40:50;15.70;99.90
48860;DHT22;34679;51.436;-2.518;2023-03-21T10:43:25;15.50;99.90
48860;DHT22;34679;51.436;-2.518;2023-03-21T10:45:55;15.20;99.90
48860;DHT22;34679;51.436;-2.518;2023-03-21T10:48:22;15.00;99.90
48860;DHT22;34679;51.436;-2.518;2023-03-21T10:50:50;15.10;99.90
48860;DHT22;34679;51.436;-2.518;2023-03-21T10:53:18;14.90;99.90
48860;DHT22;34679;51.436;-2.518;2023-03-21T10:55:55;14.80;99.90
48860;DHT22;34679;51.436;-2.518;2023-03-21T10:58:26;14.60;99.90
48860;DHT22;34679;51.436;-2.518;2023-03-21T11:00:57;14.70;99.90
48860;DHT22;34679;51.436;-2.518;2023-03-21T11:03:35;14.90;99.90
48860;DHT22;34679;51.436;-2.518;2023-03-21T11:06:08;15.00;99.90
48860;DHT22;34679;51.436;-2.518;2023-03-21T11:08:40;15.20;99.90
48860;DHT22;34679;51.436;-2.518;2023-03-21T11:11:08;15.10;99.90
48860;DHT22;34679;51.436;-2.518;2023-03-21T11:16:09;14.70;99.90
48860;DHT22;34679;51.436;-2.518;2023-03-21T11:18:41;14.70;99.90
48860;DHT22;34679;51.436;-2.518;2023-03-21T11:21:09;14.70;99.90
48860;DHT22;34679;51.436;-2.518;2023-03-21T11:23:45;14.90;99.90
48860;DHT22;34679;51.436;-2.518;2023-03-21T11:26:38;14.90;99.90
48860;DHT22;34679;51.436;-2.518;2023-03-21T11:31:52;14.70;99.90
48860;DHT22;34679;51.436;-2.518;2023-03-21T11:34:47;14.50;99.90
48860;DHT22;34679;51.436;-2.518;2023-03-21T11:37:40;14.10;99.90
48860;DHT22;34679;51.436;-2.518;2023-03-21T11:40:25;13.80;99.90
48860;DHT22;34679;51.436;-2.518;2023-03-21T11:47:54;14.30;99.90
48860;DHT22;34679;51.436;-2.518;2023-03-21T11:50:40;14.70;99.90
48860;DHT22;34679;51.436;-2.518;2023-03-21T11:55:40;15.00;99.90
48860;DHT22;34679;51.436;-2.518;2023-03-21T12:06:35;15.50;99.90
48860;DHT22;34679;51.436;-2.518;2023-03-21T12:14:29;15.60;99.90
48860;DHT22;34679;51.436;-2.518;2023-03-21T12:25:35;16.30;99.90
48860;DHT22;34679;51.436;-2.518;2023-03-21T12:39:33;16.30;99.90
48860;DHT22;34679;51.436;-2.518;2023-03-21T12:45:20;16.40;99.90
48860;DHT22;34679;51.436;-2.518;2023-03-21T12:47:56;16.00;99.90
48860;DHT22;34679;51.436;-2.518;2023-03-21T12:50:28;16.00;99.90
48860;DHT22;34679;51.436;-2.518;2023-03-21T12:55:40;16.10;99.90
48860;DHT22;34679;51.436;-2.518;2023-03-21T12:58:12;16.00;99.90
48860;DHT22;34679;51.436;-2.518;2023-03-21T13:00:45;15.90;99.90
48860;DHT22;34679;51.436;-2.518;2023-03-21T13:03:17;15.70;99.90
48860;DHT22;34679;51.436;-2.518;2023-03-21T13:05:55;15.50;99.90
48860;DHT22;34679;51.436;-2.518;2023-03-21T13:08:38;15.70;99.90
48860;DHT22;34679;51.436;-2.518;2023-03-21T13:11:09;16.10;99.90
48860;DHT22;34679;51.436;-2.518;2023-03-21T13:13:43;15.80;99.90
48860;DHT22;34679;51.436;-2.518;2023-03-21T13:22:04;15.70;99.90
48860;DHT22;34679;51.436;-2.518;2023-03-21T13:24:42;16.00;99.90
48860;DHT22;34679;51.436;-2.518;2023-03-21T13:27:21;16.20;99.90
48860;DHT22;34679;51.436;-2.518;2023-03-21T13:30:34;16.00;99.90
48860;DHT22;34679;51.436;-2.518;2023-03-21T13:32:45;15.80;99.90
48860;DHT22;34679;51.436;-2.518;2023-03-21T13:35:20;15.80;99.90
48860;DHT22;34679;51.436;-2.518;2023-03-21T13:37:56;15.80;99.90
48860;DHT22;34679;51.436;-2.518;2023-03-21T13:40:34;16.10;99.90
48860;DHT22;34679;51.436;-2.518;2023-03-21T13:43:01;16.20;99.90
48860;DHT22;34679;51.436;-2.518;2023-03-21T13:45:51;16.10;99.90
48860;DHT22;34679;51.436;-2.518;2023-03-21T13:48:55;16.00;99.90
48860;DHT22;34679;51.436;-2.518;2023-03-21T13:51:50;15.90;99.90
48860;DHT22;34679;51.436;-2.518;2023-03-21T13:56:59;15.80;99.90
48860;DHT22;34679;51.436;-2.518;2023-03-21T14:02:28;15.80;99.90
48860;DHT22;34679;51.436;-2.518;2023-03-21T14:07:28;15.70;99.90
48860;DHT22;34679;51.436;-2.518;2023-03-21T14:10:04;15.80;99.90
48860;DHT22;34679;51.436;-2.518;2023-03-21T14:12:37;15.70;99.90
48860;DHT22;34679;51.436;-2.518;2023-03-21T14:15:07;15.40;99.90
48860;DHT22;34679;51.436;-2.518;2023-03-21T14:17:34;14.90;99.90
48860;DHT22;34679;51.436;-2.518;2023-03-21T14:20:17;14.50;99.90
48860;DHT22;34679;51.436;-2.518;2023-03-21T14:22:46;14.30;99.90
48860;DHT22;34679;51.436;-2.518;2023-03-21T14:25:15;14.20;99.90
48860;DHT22;34679;51.436;-2.518;2023-03-21T14:27:44;14.30;99.90
48860;DHT22;34679;51.436;-2.518;2023-03-21T14:30:24;14.40;99.90
48860;DHT22;34679;51.436;-2.518;2023-03-21T14:32:55;14.40;99.90
48860;DHT22;34679;51.436;-2.518;2023-03-21T14:35:24;14.20;99.90
48860;DHT22;34679;51.436;-2.518;2023-03-21T14:37:53;13.90;99.90
48860;DHT22;34679;51.436;-2.518;2023-03-21T14:40:25;13.70;99.90
48860;DHT22;34679;51.436;-2.518;2023-03-21T14:42:52;13.70;99.90
48860;DHT22;34679;51.436;-2.518;2023-03-21T14:45:22;13.60;99.90
48860;DHT22;34679;51.436;-2.518;2023-03-21T14:50:48;13.60;99.90
48860;DHT22;34679;51.436;-2.518;2023-03-21T14:53:26;13.60;99.90
48860;DHT22;34679;51.436;-2.518;2023-03-21T14:56:08;13.50;99.90
48860;DHT22;34679;51.436;-2.518;2023-03-21T14:58:38;13.70;99.90
48860;DHT22;34679;51.436;-2.518;2023-03-21T15:01:05;13.90;99.90
48860;DHT22;34679;51.436;-2.518;2023-03-21T15:03:32;14.10;99.90
48860;DHT22;34679;51.436;-2.518;2023-03-21T15:05:58;14.00;99.90
48860;DHT22;34679;51.436;-2.518;2023-03-21T15:08:27;13.90;99.90
48860;DHT22;34679;51.436;-2.518;2023-03-21T15:11:04;14.00;99.90
48860;DHT22;34679;51.436;-2.518;2023-03-21T15:13:49;13.90;99.90
48860;DHT22;34679;51.436;-2.518;2023-03-21T15:16:19;14.00;99.90
48860;DHT22;34679;51.436;-2.518;2023-03-21T15:18:46;14.00;99.90
48860;DHT22;34679;51.436;-2.518;2023-03-21T15:23:56;13.90;99.90
48860;DHT22;34679;51.436;-2.518;2023-03-21T15:26:24;13.80;99.90
48860;DHT22;34679;51.436;-2.518;2023-03-21T15:28:55;13.90;99.90
48860;DHT22;34679;51.436;-2.518;2023-03-21T15:31:25;13.80;99.90
48860;DHT22;34679;51.436;-2.518;2023-03-21T15:33:53;13.80;99.90
48860;DHT22;34679;51.436;-2.518;2023-03-21T15:36:43;13.60;99.90
48860;DHT22;34679;51.436;-2.518;2023-03-21T15:39:14;13.70;99.90
48860;DHT22;34679;51.436;-2.518;2023-03-21T15:41:40;13.70;99.90
48860;DHT22;34679;51.436;-2.518;2023-03-21T15:54:16;14.10;99.90
48860;DHT22;34679;51.436;-2.518;2023-03-21T15:56:43;14.00;99.90
48860;DHT22;34679;51.436;-2.518;2023-03-21T15:59:16;14.10;99.90
48860;DHT22;34679;51.436;-2.518;2023-03-21T16:01:46;14.00;99.90
48860;DHT22;34679;51.436;-2.518;2023-03-21T16:04:12;14.20;99.90
48860;DHT22;34679;51.436;-2.518;2023-03-21T16:06:49;14.20;99.90
48860;DHT22;34679;51.436;-2.518;2023-03-21T16:09:17;14.20;99.90
48860;DHT22;34679;51.436;-2.518;2023-03-21T16:14:18;13.80;99.90
48860;DHT22;34679;51.436;-2.518;2023-03-21T16:16:44;13.80;99.90
48860;DHT22;34679;51.436;-2.518;2023-03-21T16:19:11;13.40;99.90
48860;DHT22;34679;51.436;-2.518;2023-03-21T16:21:37;13.40;99.90
48860;DHT22;34679;51.436;-2.518;2023-03-21T16:24:04;13.40;99.90
48860;DHT22;34679;51.436;-2.518;2023-03-21T16:26:35;13.30;99.90
48860;DHT22;34679;51.436;-2.518;2023-03-21T16:29:01;13.20;99.90
48860;DHT22;34679;51.436;-2.518;2023-03-21T16:31:29;13.20;99.90
48860;DHT22;34679;51.436;-2.518;2023-03-21T16:33:55;13.20;99.90
48860;DHT22;34679;51.436;-2.518;2023-03-21T16:36:27;13.10;99.90
48860;DHT22;34679;51.436;-2.518;2023-03-21T16:38:54;12.90;99.90
48860;DHT22;34679;51.436;-2.518;2023-03-21T16:41:21;12.90;99.90
48860;DHT22;34679;51.436;-2.518;2023-03-21T16:43:48;12.90;99.90
48860;DHT22;34679;51.436;-2.518;2023-03-21T16:46:23;13.10;99.90
48860;DHT22;34679;51.436;-2.518;2023-03-21T16:48:54;13.10;99.90
48860;DHT22;34679;51.436;-2.518;2023-03-21T16:51:23;13.20;99.90
48860;DHT22;34679;51.436;-2.518;2023-03-21T16:53:54;13.20;99.90
48860;DHT22;34679;51.436;-2.518;2023-03-21T16:56:23;13.30;99.90
48860;DHT22;34679;51.436;-2.518;2023-03-21T16:58:52;13.40;99.90
48860;DHT22;34679;51.436;-2.518;2023-03-21T17:01:19;13.50;99.90
48860;DHT22;34679;51.436;-2.518;2023-03-21T17:03:47;13.50;99.90
48860;DHT22;34679;51.436;-2.518;2023-03-21T17:06:19;13.40;99.90
48860;DHT22;34679;51.436;-2.518;2023-03-21T17:08:45;13.40;99.90
48860;DHT22;34679;51.436;-2.518;2023-03-21T17:11:13;13.50;99.90
48860;DHT22;34679;51.436;-2.518;2023-03-21T17:13:41;13.40;99.90
48860;DHT22;34679;51.436;-2.518;2023-03-21T17:16:13;13.40;99.90
48860;DHT22;34679;51.436;-2.518;2023-03-21T17:18:40;13.50;99.90
48860;DHT22;34679;51.436;-2.518;2023-03-21T17:23:39;13.50;99.90
48860;DHT22;34679;51.436;-2.518;2023-03-21T17:26:05;13.50;99.90
48860;DHT22;34679;51.436;-2.518;2023-03-21T17:28:34;13.50;99.90
48860;DHT22;34679;51.436;-2.518;2023-03-21T17:31:00;13.40;99.90
48860;DHT22;34679;51.436;-2.518;2023-03-21T17:33:25;13.40;99.90
48860;DHT22;34679;51.436;-2.518;2023-03-21T17:35:51;13.30;99.90
48860;DHT22;34679;51.436;-2.518;2023-03-21T17:38:17;13.20;99.90
48860;DHT22;34679;51.436;-2.518;2023-03-21T17:40:43;13.20;99.90
48860;DHT22;34679;51.436;-2.518;2023-03-21T17:43:16;13.20;99.90